Archival Weather

Chicago O'Hare International

Chicago, Illinois (KORD)

Report from: Wednesday, January 25, 2023 3:51 AM CST
Current time: Monday, February 6, 2023 12:02 AM CST

Current weather
Weather history
Weather forecast

Present weatherLight snow
Temperature0.0°C (32.0°F)
Wind chill-1.8°C (28.7°F)
Dew point-2.2°C (28.0°F)
Winds 3 kts (1.5 m/s, 3.5 mph) East (90°)
Visibility0.8 mi. (1.2 km)
Clouds Ceiling: Broken clouds 700 ft. (213 m)
Overcast 1,000 ft. (305 m)
Altimeter29.90 in.Hg (1013 mB)
Precipitiation0.04 in. (1 mm)
Relative humidity85 %
Density altitude-1,729 ft. (-527 m)
Sea-level pressure101.3 kPa (1013 mB, 29.92 in.Hg)
Remarks Automated weather observing station with precipitation discriminator
Flight conditions Low Instrument Meteorological Conditions
Raw dataKORD 250951Z 09003KT 3/4SM R10L/5000VP6000FT -SN BKN007 OVC010 00/M02 A2990 RMK AO2 SLP131 P0004 T00001022
An error has occurred. This application may no longer respond until reloaded. Reload 🗙